Terminal Aerodrome Forecast
Issued by NWS

Home | Current Version | Previous Version | Text Only | Print | Product List | Glossary On
Versions: 1 2 3 4 5 6 7 8 9 10 11 12 13 14 15 16 17 18 19
000
FTUS42 KJAX 290500
TAFCRG
TAF
KCRG 290520Z 2906/3006 00000KT 5SM BR BKN030
      TEMPO 2907/2909 1SM BR BKN003
     FM290900 22003KT 1SM BR BKN003
      TEMPO 2910/2914 1/4SM FG OVC001
     FM291500 22010KT P6SM VCSH BKN025 OVC050=

USA.gov is the U.S. government's official web portal to all federal, state and local government web resources and services.